Time;durP1;ratioP1;P1;durP2;ratioP2;P2;SDS_P1;SDS_P2;PMS_P1;PMS_P2;Temp;Humidity;BMP_temperature;BMP_pressure;BME280_temperature;BME280_humidity;BME280_pressure;Samples;Min_cycle;Max_cycle;Signal;HPM_P1;HPM_P2
2022/01/30 00:01:08;;;;;;;29.50;8.38;;;8.60;99.90;;;;;;5059891;28;20488;-83
2022/01/30 00:03:34;;;;;;;32.20;8.05;;;8.60;99.90;;;;;;5076271;28;20056;-83
2022/01/30 00:05:59;;;;;;;32.10;7.80;;;8.60;99.90;;;;;;5076830;28;20063;-83
2022/01/30 00:08:25;;;;;;;32.90;8.45;;;8.60;99.90;;;;;;5060003;28;20453;-82
2022/01/30 00:10:57;;;;;;;34.25;8.60;;;8.60;99.90;;;;;;5076695;28;20032;-82
2022/01/30 00:13:25;;;;;;;43.45;7.53;;;8.60;99.90;;;;;;5076385;28;20016;-83
2022/01/30 00:15:53;;;;;;;36.10;7.28;;;8.60;99.90;;;;;;5077111;28;20025;-83
2022/01/30 00:18:45;;;;;;;36.53;8.45;;;8.60;99.90;;;;;;5077247;28;20404;-83
2022/01/30 00:21:29;;;;;;;30.73;6.55;;;8.50;99.90;;;;;;5076523;28;20193;-83
2022/01/30 00:26:29;;;;;;;26.15;5.57;;;8.50;99.90;;;;;;5094632;28;20052;-83
2022/01/30 00:28:55;;;;;;;28.88;5.85;;;8.40;99.90;;;;;;5077258;28;20032;-83
2022/01/30 00:31:23;;;;;;;25.45;5.47;;;8.40;99.90;;;;;;5076264;28;20119;-83
2022/01/30 00:33:49;;;;;;;33.17;7.13;;;8.40;99.90;;;;;;5059781;28;20483;-83
2022/01/30 00:36:14;;;;;;;29.60;5.38;;;8.40;99.90;;;;;;5076631;28;20028;-82
2022/01/30 00:38:40;;;;;;;28.48;5.55;;;8.40;99.90;;;;;;5075789;28;20024;-83
2022/01/30 00:41:05;;;;;;;27.40;5.85;;;8.30;99.90;;;;;;5076166;28;20109;-82
2022/01/30 00:43:31;;;;;;;24.27;5.22;;;8.40;99.90;;;;;;5075834;28;20028;-83
2022/01/30 00:45:57;;;;;;;36.40;5.43;;;8.30;99.90;;;;;;5059243;28;20033;-83
2022/01/30 00:48:22;;;;;;;23.10;4.35;;;8.30;99.90;;;;;;5059073;28;20035;-83
2022/01/30 00:50:48;;;;;;;29.50;4.63;;;8.30;99.90;;;;;;5076030;28;20082;-83
2022/01/30 00:53:15;;;;;;;27.17;4.63;;;8.30;99.90;;;;;;5076221;28;20451;-83
2022/01/30 00:55:41;;;;;;;23.48;4.65;;;8.30;99.90;;;;;;5075961;28;20098;-83
2022/01/30 00:58:06;;;;;;;25.40;4.20;;;8.20;99.90;;;;;;5094695;28;20028;-83
2022/01/30 01:00:33;;;;;;;26.15;4.97;;;8.20;99.90;;;;;;5076285;28;20036;-83
2022/01/30 01:03:00;;;;;;;33.22;5.10;;;8.20;99.90;;;;;;5093628;28;20035;-83
2022/01/30 01:05:25;;;;;;;29.77;5.60;;;8.20;99.90;;;;;;5075454;28;20028;-84
2022/01/30 01:07:54;;;;;;;26.27;5.85;;;8.20;99.90;;;;;;5075005;28;20077;-83
2022/01/30 01:23:24;;;;;;;23.42;4.07;;;8.10;99.90;;;;;;5078101;28;20097;-83
2022/01/30 01:23:43;;;;;;;27.75;4.60;;;8.10;99.90;;;;;;5074951;28;20051;-83
2022/01/30 01:26:09;;;;;;;27.35;4.80;;;8.10;99.90;;;;;;5071883;28;20044;-83
2022/01/30 01:28:34;;;;;;;30.92;3.72;;;8.10;99.90;;;;;;5071673;28;20443;-83
2022/01/30 01:31:00;;;;;;;25.17;4.90;;;8.10;99.90;;;;;;5054999;28;20024;-83
2022/01/30 01:33:35;;;;;;;24.33;3.88;;;8.00;99.90;;;;;;5071951;28;20029;-83
2022/01/30 01:36:00;;;;;;;32.08;4.53;;;8.10;99.90;;;;;;5070460;28;20032;-82
2022/01/30 01:38:26;;;;;;;26.52;5.13;;;8.00;99.90;;;;;;5072811;28;20028;-83
2022/01/30 01:40:53;;;;;;;18.08;3.45;;;8.00;99.90;;;;;;5071851;28;20093;-83
2022/01/30 01:43:21;;;;;;;19.50;3.45;;;8.00;99.90;;;;;;5071816;28;20377;-84
2022/01/30 01:45:51;;;;;;;29.02;4.45;;;8.00;99.90;;;;;;5065822;28;20450;-83
2022/01/30 01:48:17;;;;;;;19.52;3.30;;;8.10;99.90;;;;;;5071820;28;20036;-83
2022/01/30 01:50:51;;;;;;;17.00;4.97;;;8.10;99.90;;;;;;5054984;28;20457;-83
2022/01/30 01:53:21;;;;;;;26.85;5.95;;;8.10;99.90;;;;;;5071969;28;20369;-83
2022/01/30 01:55:46;;;;;;;17.55;3.78;;;8.00;99.90;;;;;;5071638;28;20017;-83
2022/01/30 01:58:12;;;;;;;24.25;4.22;;;8.00;99.90;;;;;;5072789;28;20518;-83
2022/01/30 02:00:38;;;;;;;24.08;4.05;;;8.10;99.90;;;;;;5072420;28;20045;-83
2022/01/30 02:03:04;;;;;;;21.58;4.20;;;8.10;99.90;;;;;;5055201;28;20480;-82
2022/01/30 02:05:33;;;;;;;21.63;3.42;;;8.00;99.90;;;;;;5072938;28;20380;-83
2022/01/30 02:11:07;;;;;;;26.23;3.58;;;8.10;99.90;;;;;;5072831;28;20372;-83
2022/01/30 02:24:44;;;;;;;24.45;3.80;;;8.00;99.90;;;;;;5076293;28;20113;-89
2022/01/30 02:27:17;;;;;;;20.58;5.07;;;7.90;99.90;;;;;;5076462;28;20494;-83
2022/01/30 02:29:42;;;;;;;23.67;4.47;;;7.90;99.90;;;;;;5058937;28;20024;-83
2022/01/30 02:32:08;;;;;;;21.52;3.75;;;7.90;99.90;;;;;;5041975;28;20029;-83
2022/01/30 02:34:33;;;;;;;24.48;5.13;;;7.90;99.90;;;;;;5041904;28;20500;-84
2022/01/30 02:37:00;;;;;;;25.80;5.75;;;8.00;99.90;;;;;;5058300;28;20119;-83
2022/01/30 02:39:26;;;;;;;27.85;5.30;;;7.90;99.90;;;;;;5058547;28;20042;-83
2022/01/30 02:41:52;;;;;;;22.25;3.47;;;7.90;99.90;;;;;;5041748;28;20389;-83
2022/01/30 02:44:24;;;;;;;21.05;3.47;;;7.90;99.90;;;;;;5074886;28;20165;-83
2022/01/30 02:46:53;;;;;;;19.27;3.65;;;7.90;99.90;;;;;;5074895;28;20040;-83
2022/01/30 02:51:53;;;;;;;22.77;3.70;;;7.90;99.90;;;;;;5076155;28;20071;-83
2022/01/30 02:54:19;;;;;;;23.98;4.15;;;7.90;99.90;;;;;;5042299;28;20028;-83
2022/01/30 02:56:45;;;;;;;23.77;4.05;;;7.90;99.90;;;;;;5041421;28;20556;-83
2022/01/30 02:59:11;;;;;;;21.85;4.22;;;7.90;99.90;;;;;;5075768;28;20111;-83
2022/01/30 03:01:38;;;;;;;24.27;4.50;;;7.80;99.90;;;;;;5057857;28;20043;-90
2022/01/30 03:04:04;;;;;;;24.38;4.88;;;7.80;99.90;;;;;;5058206;28;20376;-83
2022/01/30 03:06:30;;;;;;;19.38;3.38;;;7.70;99.90;;;;;;5041526;28;20112;-82
2022/01/30 03:08:55;;;;;;;25.00;3.55;;;7.70;99.90;;;;;;5057588;28;20033;-83
2022/01/30 03:11:21;;;;;;;20.60;3.45;;;7.70;99.90;;;;;;5057642;28;20380;-83
2022/01/30 03:13:47;;;;;;;24.20;3.35;;;7.70;99.90;;;;;;5057430;28;20025;-83
2022/01/30 03:16:13;;;;;;;16.40;3.38;;;7.60;99.90;;;;;;5056418;28;20107;-84
2022/01/30 03:18:40;;;;;;;24.98;3.88;;;7.60;99.90;;;;;;5057253;28;20101;-82
2022/01/30 03:21:07;;;;;;;20.70;3.42;;;7.60;99.90;;;;;;5075537;28;20468;-82
2022/01/30 03:23:37;;;;;;;20.10;3.47;;;7.60;99.90;;;;;;5075222;28;20081;-83
2022/01/30 03:26:03;;;;;;;19.48;3.85;;;7.60;99.90;;;;;;5074829;28;20040;-83
2022/01/30 03:28:30;;;;;;;16.80;2.65;;;7.60;99.90;;;;;;5040921;28;20029;-83
2022/01/30 03:30:59;;;;;;;18.38;3.47;;;7.50;99.90;;;;;;5056979;28;20025;-83
2022/01/30 03:33:25;;;;;;;19.42;2.80;;;7.50;99.90;;;;;;5057201;28;20362;-83
2022/01/30 03:35:51;;;;;;;18.38;3.35;;;7.50;99.90;;;;;;5075033;28;20112;-84
2022/01/30 03:38:19;;;;;;;19.95;4.15;;;7.50;99.90;;;;;;5056942;28;20435;-84
2022/01/30 03:40:44;;;;;;;20.35;3.08;;;7.50;99.90;;;;;;5057551;28;20041;-83
2022/01/30 03:43:10;;;;;;;16.13;2.80;;;7.50;99.90;;;;;;5057423;28;20530;-83
2022/01/30 03:45:36;;;;;;;17.77;3.20;;;7.50;99.90;;;;;;5057038;28;20028;-83
2022/01/30 03:48:02;;;;;;;17.02;2.67;;;7.40;99.90;;;;;;5040435;28;20385;-83
2022/01/30 03:50:28;;;;;;;16.42;2.85;;;7.40;99.90;;;;;;5074781;28;20481;-83
2022/01/30 03:52:57;;;;;;;14.80;3.22;;;7.50;99.90;;;;;;5074729;28;20028;-83
2022/01/30 03:55:23;;;;;;;17.17;3.42;;;7.40;99.90;;;;;;5040563;28;20024;-83
2022/01/30 03:57:50;;;;;;;15.82;2.60;;;7.40;99.90;;;;;;5056556;28;20427;-83
2022/01/30 04:00:16;;;;;;;14.40;2.72;;;7.40;99.90;;;;;;5056891;28;20118;-83
2022/01/30 04:02:41;;;;;;;25.55;4.05;;;7.40;99.90;;;;;;5056757;28;20425;-82
2022/01/30 04:05:08;;;;;;;17.55;3.40;;;7.40;99.90;;;;;;5056374;28;20025;-83
2022/01/30 04:07:34;;;;;;;18.58;2.60;;;7.30;99.90;;;;;;5040334;28;20174;-83
2022/01/30 04:10:00;;;;;;;14.30;2.85;;;7.30;99.90;;;;;;5073966;28;20066;-83
2022/01/30 04:12:26;;;;;;;17.35;3.40;;;7.30;99.90;;;;;;5074641;28;20052;-83
2022/01/30 04:14:52;;;;;;;13.30;2.60;;;7.30;99.90;;;;;;5040074;28;20024;-84
2022/01/30 04:17:19;;;;;;;17.27;2.85;;;7.30;99.90;;;;;;5074449;28;20025;-82
2022/01/30 04:19:45;;;;;;;18.02;2.58;;;7.30;99.90;;;;;;5056125;28;20058;-83
2022/01/30 04:22:11;;;;;;;20.13;3.00;;;7.30;99.90;;;;;;5056274;28;20036;-83
2022/01/30 04:24:37;;;;;;;17.52;3.05;;;7.20;99.90;;;;;;5056570;28;20088;-83
2022/01/30 04:27:03;;;;;;;20.08;2.58;;;7.30;99.90;;;;;;5055981;28;20515;-83
2022/01/30 04:29:28;;;;;;;17.63;3.40;;;7.20;99.90;;;;;;5056472;28;20551;-84
2022/01/30 04:31:55;;;;;;;21.73;3.15;;;7.20;99.90;;;;;;5055768;28;20369;-83
2022/01/30 04:34:21;;;;;;;18.58;2.67;;;7.20;99.90;;;;;;5055788;28;20021;-83
2022/01/30 04:53:07;;;;;;;11.95;2.33;;;7.00;99.90;;;;;;5058602;28;20094;-83
2022/01/30 05:03:56;;;;;;;16.13;3.40;;;7.10;99.90;;;;;;5073467;28;20039;-83
2022/01/30 05:06:10;;;;;;;16.45;3.67;;;7.00;99.90;;;;;;5042746;28;20036;-83
2022/01/30 05:08:36;;;;;;;21.20;3.50;;;7.00;99.90;;;;;;5056424;28;20055;-83
2022/01/30 05:11:06;;;;;;;18.35;3.38;;;7.00;99.90;;;;;;5055253;28;20476;-83
2022/01/30 05:13:33;;;;;;;18.38;3.20;;;7.00;99.90;;;;;;5073519;28;20020;-83
2022/01/30 05:15:59;;;;;;;17.35;2.63;;;7.00;99.90;;;;;;5055221;28;20052;-83
2022/01/30 05:18:29;;;;;;;21.00;3.42;;;7.00;99.90;;;;;;5025682;28;20068;-83
2022/01/30 05:20:55;;;;;;;15.90;2.78;;;7.00;99.90;;;;;;5057737;28;20025;-83
2022/01/30 05:23:21;;;;;;;15.70;4.18;;;6.90;99.90;;;;;;5073309;28;20032;-83
2022/01/30 05:25:47;;;;;;;16.33;3.28;;;7.00;99.90;;;;;;5073132;28;20044;-83
2022/01/30 05:28:18;;;;;;;17.98;3.53;;;7.00;99.90;;;;;;5073124;28;20450;-83
2022/01/30 05:30:44;;;;;;;18.50;3.38;;;7.00;99.90;;;;;;5038447;28;20029;-83
2022/01/30 05:33:11;;;;;;;17.15;2.67;;;7.00;99.90;;;;;;5073060;28;20036;-83
2022/01/30 05:35:37;;;;;;;14.85;3.53;;;6.90;99.90;;;;;;5055303;28;20043;-82
2022/01/30 05:38:04;;;;;;;23.77;3.53;;;7.00;99.90;;;;;;5038652;28;20453;-83
2022/01/30 05:40:31;;;;;;;18.45;3.25;;;7.00;99.90;;;;;;5038589;28;20481;-82
2022/01/30 05:42:58;;;;;;;18.90;2.80;;;7.00;99.90;;;;;;5054923;28;20036;-84
2022/01/30 05:47:57;;;;;;;19.67;3.85;;;7.00;99.90;;;;;;5073013;28;20075;-83
2022/01/30 05:50:23;;;;;;;18.83;2.55;;;7.00;99.90;;;;;;5039714;28;20102;-83
2022/01/30 05:52:49;;;;;;;18.73;3.38;;;7.00;99.90;;;;;;5022054;28;20044;-83
2022/01/30 05:55:15;;;;;;;22.45;2.95;;;6.90;99.90;;;;;;5058710;28;20056;-83
2022/01/30 05:57:41;;;;;;;22.48;3.55;;;6.90;99.90;;;;;;5026015;28;20036;-83
2022/01/30 06:00:09;;;;;;;22.67;3.45;;;7.00;99.90;;;;;;5058704;28;20040;-83
2022/01/30 06:02:35;;;;;;;19.42;2.92;;;6.90;99.90;;;;;;5058964;28;20043;-83
2022/01/30 06:05:01;;;;;;;15.70;3.30;;;6.90;99.90;;;;;;5042280;28;20028;-83
2022/01/30 06:07:30;;;;;;;14.50;2.78;;;6.90;99.90;;;;;;5059097;28;20021;-83
2022/01/30 06:09:56;;;;;;;19.23;3.30;;;6.90;99.90;;;;;;5042557;28;20093;-83
2022/01/30 06:12:21;;;;;;;18.02;3.53;;;6.90;99.90;;;;;;5076360;28;20528;-83
2022/01/30 06:14:47;;;;;;;24.67;3.47;;;6.90;99.90;;;;;;5041812;28;20099;-82
2022/01/30 06:17:16;;;;;;;21.92;3.22;;;6.90;99.90;;;;;;5041986;28;20028;-83
2022/01/30 06:19:42;;;;;;;25.35;3.65;;;6.90;99.90;;;;;;5058384;28;20029;-83
2022/01/30 06:22:07;;;;;;;24.08;3.97;;;6.90;99.90;;;;;;5076257;28;20108;-83
2022/01/30 06:24:33;;;;;;;30.60;4.65;;;6.90;99.90;;;;;;5041966;28;20031;-83
2022/01/30 06:27:01;;;;;;;23.48;4.35;;;6.90;99.90;;;;;;5058314;28;20048;-83
2022/01/30 06:29:27;;;;;;;19.83;3.20;;;6.90;99.90;;;;;;5076255;28;20121;-83
2022/01/30 06:31:53;;;;;;;26.60;3.70;;;6.90;99.90;;;;;;5040124;28;20196;-83
2022/01/30 06:34:19;;;;;;;24.08;3.78;;;6.90;99.90;;;;;;5058370;28;20527;-83
2022/01/30 06:36:45;;;;;;;22.05;3.90;;;6.90;99.90;;;;;;5042037;28;20381;-82
2022/01/30 06:39:11;;;;;;;21.65;3.97;;;6.90;99.90;;;;;;5041456;28;20039;-82
2022/01/30 06:41:36;;;;;;;27.77;4.55;;;6.90;99.90;;;;;;5058435;28;20119;-83
2022/01/30 06:44:02;;;;;;;19.15;4.45;;;6.90;99.90;;;;;;5042158;28;20035;-82
2022/01/30 06:46:28;;;;;;;22.13;3.33;;;6.90;99.90;;;;;;5058513;28;20067;-83
2022/01/30 06:48:53;;;;;;;27.13;3.83;;;6.90;99.90;;;;;;5058432;28;20056;-82
2022/01/30 06:51:19;;;;;;;25.40;4.60;;;6.90;99.90;;;;;;5024736;28;20029;-83
2022/01/30 06:53:45;;;;;;;24.15;4.03;;;6.90;99.90;;;;;;5074986;28;20457;-83
2022/01/30 06:56:10;;;;;;;23.17;4.28;;;6.80;99.90;;;;;;5057814;28;20032;-83
2022/01/30 06:58:36;;;;;;;29.63;4.43;;;6.80;99.90;;;;;;5075435;28;20025;-86
2022/01/30 07:01:01;;;;;;;22.95;3.75;;;6.80;99.90;;;;;;5073485;28;20035;-82
2022/01/30 07:03:27;;;;;;;21.98;4.63;;;6.80;99.90;;;;;;5057882;28;20029;-83
2022/01/30 07:05:53;;;;;;;23.90;4.38;;;6.80;99.90;;;;;;5073853;28;20029;-82
2022/01/30 07:08:18;;;;;;;25.80;3.97;;;6.80;99.90;;;;;;5074700;28;20032;-83
2022/01/30 07:10:45;;;;;;;29.55;3.70;;;6.80;99.90;;;;;;5058452;28;20044;-83
2022/01/30 07:13:12;;;;;;;36.35;4.18;;;6.70;99.90;;;;;;5075926;28;20029;-83
2022/01/30 07:15:40;;;;;;;25.20;4.20;;;6.70;99.90;;;;;;5076377;28;20020;-83
2022/01/30 07:18:05;;;;;;;25.75;3.70;;;6.80;99.90;;;;;;5043055;28;20056;-83
2022/01/30 07:20:31;;;;;;;28.55;5.03;;;6.70;99.90;;;;;;5059713;28;20071;-83
2022/01/30 07:22:57;;;;;;;19.95;3.22;;;6.80;99.90;;;;;;5085793;28;20020;-82
2022/01/30 07:25:22;;;;;;;29.17;4.63;;;6.70;99.90;;;;;;5085446;28;20056;-83
2022/01/30 07:27:48;;;;;;;28.60;4.68;;;6.80;99.90;;;;;;5102540;28;20084;-84
2022/01/30 07:30:14;;;;;;;23.02;3.80;;;6.80;99.90;;;;;;5085849;28;20020;-88
2022/01/30 07:32:39;;;;;;;26.92;5.95;;;6.70;99.90;;;;;;5098379;28;20025;-84
2022/01/30 07:35:06;;;;;;;26.88;5.85;;;6.80;99.90;;;;;;5049191;28;20031;-84
2022/01/30 07:37:33;;;;;;;22.02;4.97;;;6.80;99.90;;;;;;5081967;28;20368;-83
2022/01/30 07:40:00;;;;;;;20.23;4.25;;;6.80;99.90;;;;;;5041099;28;20439;-83
2022/01/30 07:42:26;;;;;;;24.73;3.90;;;6.70;99.90;;;;;;5056979;28;20540;-83
2022/01/30 07:44:52;;;;;;;23.13;4.15;;;6.70;99.90;;;;;;5057367;28;20048;-83
2022/01/30 07:47:19;;;;;;;25.23;4.30;;;6.70;99.90;;;;;;5056975;28;20028;-83
2022/01/30 07:49:51;;;;;;;24.55;3.60;;;6.70;99.90;;;;;;5040538;28;20085;-83
2022/01/30 07:52:19;;;;;;;25.73;4.60;;;6.70;99.90;;;;;;5075051;28;20024;-83
2022/01/30 07:54:45;;;;;;;25.20;4.60;;;6.70;99.90;;;;;;5075126;28;20024;-83
2022/01/30 07:57:11;;;;;;;25.80;4.05;;;6.70;99.90;;;;;;5040294;28;20048;-82
2022/01/30 07:59:36;;;;;;;17.65;3.85;;;6.60;99.90;;;;;;5056960;28;20118;-83
2022/01/30 08:02:02;;;;;;;26.70;4.90;;;6.70;99.90;;;;;;5057609;28;20162;-82
2022/01/30 08:04:28;;;;;;;17.55;3.80;;;6.70;99.90;;;;;;5075191;28;20099;-82
2022/01/30 08:06:55;;;;;;;23.25;3.95;;;6.60;99.90;;;;;;5058670;28;20056;-83
2022/01/30 08:09:20;;;;;;;26.83;4.38;;;6.60;99.90;;;;;;5040383;28;20028;-83
2022/01/30 08:11:46;;;;;;;21.48;4.03;;;6.70;99.90;;;;;;5040839;28;20043;-82
2022/01/30 08:14:12;;;;;;;27.60;4.60;;;6.70;99.90;;;;;;5057135;28;20469;-83
2022/01/30 08:16:38;;;;;;;25.17;4.10;;;6.70;99.90;;;;;;5039734;28;20025;-83
2022/01/30 08:19:04;;;;;;;17.20;3.60;;;6.70;99.90;;;;;;5056875;28;20039;-83
2022/01/30 08:21:30;;;;;;;23.45;4.25;;;6.60;99.90;;;;;;5074273;28;20020;-83
2022/01/30 08:23:57;;;;;;;23.13;3.83;;;6.70;99.90;;;;;;5023674;28;20068;-84
2022/01/30 08:26:23;;;;;;;23.40;4.25;;;6.70;99.90;;;;;;5056107;28;20110;-83
2022/01/30 08:28:49;;;;;;;25.83;4.57;;;6.70;99.90;;;;;;5056784;28;20484;-82
2022/01/30 08:31:14;;;;;;;40.38;3.72;;;6.70;99.90;;;;;;5039665;28;20036;-83
2022/01/30 08:33:40;;;;;;;21.80;3.55;;;6.70;99.90;;;;;;5056538;28;20037;-83
2022/01/30 08:36:06;;;;;;;23.27;3.65;;;6.70;99.90;;;;;;5056431;28;20017;-83
2022/01/30 08:38:32;;;;;;;24.27;4.45;;;6.70;99.90;;;;;;5057255;28;20024;-84
2022/01/30 08:40:58;;;;;;;22.20;3.85;;;6.60;99.90;;;;;;5086148;28;20032;-82
2022/01/30 08:43:24;;;;;;;24.67;4.75;;;6.70;99.90;;;;;;5094155;28;20043;-82
2022/01/30 08:45:50;;;;;;;20.20;4.38;;;6.70;99.90;;;;;;5059095;28;20029;-83
2022/01/30 08:48:16;;;;;;;24.88;3.75;;;6.70;99.90;;;;;;5094449;28;20028;-82
2022/01/30 08:50:43;;;;;;;31.50;4.38;;;6.70;99.90;;;;;;5076512;28;20088;-82
2022/01/30 08:53:08;;;;;;;23.98;4.35;;;6.70;99.90;;;;;;5076192;28;20020;-83
2022/01/30 08:55:34;;;;;;;31.85;4.90;;;6.70;99.90;;;;;;5059196;28;20115;-83
2022/01/30 08:58:08;;;;;;;22.08;4.40;;;6.70;99.90;;;;;;5059400;28;20154;-82
2022/01/30 09:00:37;;;;;;;19.98;3.90;;;6.70;99.90;;;;;;5093706;28;20023;-83
2022/01/30 09:03:04;;;;;;;23.90;4.25;;;6.70;99.90;;;;;;5093416;28;20080;-83
2022/01/30 09:05:31;;;;;;;23.48;6.45;;;6.70;99.90;;;;;;5074684;28;20048;-83
2022/01/30 09:08:04;;;;;;;18.55;3.90;;;6.70;99.90;;;;;;5074929;28;20016;-83
2022/01/30 09:10:38;;;;;;;20.85;4.05;;;6.70;99.90;;;;;;5076480;28;20606;-83
2022/01/30 09:13:05;;;;;;;22.42;4.20;;;6.80;99.90;;;;;;5075456;28;20101;-83
2022/01/30 09:15:41;;;;;;;21.70;3.85;;;6.80;99.90;;;;;;5093458;28;20348;-83
2022/01/30 09:18:09;;;;;;;21.00;3.30;;;6.90;99.90;;;;;;5077149;28;20024;-82
2022/01/30 09:20:42;;;;;;;24.25;4.28;;;6.90;99.90;;;;;;5075355;28;20028;-83
2022/01/30 09:23:10;;;;;;;30.48;6.07;;;6.90;99.90;;;;;;5075841;28;20027;-82
2022/01/30 09:25:37;;;;;;;22.17;4.03;;;7.00;99.90;;;;;;5093309;28;20089;-83
2022/01/30 09:28:03;;;;;;;24.48;4.25;;;7.00;99.90;;;;;;5074938;28;20016;-83
2022/01/30 09:30:29;;;;;;;33.33;6.10;;;7.00;99.90;;;;;;5093499;28;20456;-83
2022/01/30 09:32:55;;;;;;;31.50;5.72;;;7.10;99.90;;;;;;5093612;28;20033;-83
2022/01/30 09:35:21;;;;;;;26.65;4.72;;;7.10;99.90;;;;;;5075400;28;20035;-83
2022/01/30 09:37:47;;;;;;;27.52;5.40;;;7.10;99.90;;;;;;5093159;28;20075;-83
2022/01/30 09:40:17;;;;;;;22.25;4.47;;;7.10;99.90;;;;;;5093550;28;20504;-82
2022/01/30 09:42:45;;;;;;;36.67;5.35;;;7.10;99.90;;;;;;5093124;28;20028;-83
2022/01/30 09:45:11;;;;;;;28.75;5.65;;;7.10;99.90;;;;;;5093553;28;20047;-83
2022/01/30 09:47:37;;;;;;;34.88;5.55;;;7.20;99.90;;;;;;5092904;28;20464;-82
2022/01/30 09:50:04;;;;;;;32.00;4.47;;;7.20;99.90;;;;;;5075172;28;20043;-83
2022/01/30 09:52:30;;;;;;;28.60;5.25;;;7.20;99.90;;;;;;5074151;28;20058;-83
2022/01/30 09:54:57;;;;;;;33.97;4.60;;;7.40;99.90;;;;;;5092798;28;20051;-83
2022/01/30 09:57:23;;;;;;;41.88;5.32;;;7.40;99.90;;;;;;5074939;28;20036;-83
2022/01/30 09:59:48;;;;;;;31.88;6.00;;;7.50;99.90;;;;;;5075029;28;20036;-83
2022/01/30 10:02:14;;;;;;;31.70;6.13;;;7.50;99.90;;;;;;5075306;28;20039;-82
2022/01/30 10:04:40;;;;;;;27.65;4.85;;;7.50;99.90;;;;;;5074661;28;20028;-83
2022/01/30 10:07:14;;;;;;;24.05;4.13;;;7.60;99.90;;;;;;5075222;28;20055;-83
2022/01/30 10:09:45;;;;;;;25.08;5.68;;;7.60;99.90;;;;;;5074922;28;20029;-83
2022/01/30 10:12:19;;;;;;;;;;;7.70;99.90;;;;;;5075646;28;20028;-82
2022/01/30 10:14:56;;;;;;;27.23;5.88;;;7.70;99.90;;;;;;5074962;28;19930;-83
2022/01/30 10:17:36;;;;;;;21.38;4.10;;;7.70;99.90;;;;;;5093221;28;20047;-83
2022/01/30 10:20:11;;;;;;;27.92;4.78;;;7.80;99.90;;;;;;5093587;28;20058;-84
2022/01/30 10:22:59;;;;;;;28.83;5.22;;;7.80;99.90;;;;;;5092876;28;20028;-83
2022/01/30 10:25:34;;;;;;;31.25;4.88;;;7.90;99.90;;;;;;5093360;28;20421;-84
2022/01/30 10:28:11;;;;;;;28.58;6.07;;;8.00;99.90;;;;;;5075140;28;20478;-84
2022/01/30 10:30:44;;;;;;;26.23;6.07;;;8.00;99.90;;;;;;5057984;28;20145;-83
2022/01/30 10:33:12;;;;;;;29.52;5.00;;;8.00;99.90;;;;;;5074803;28;20039;-83
2022/01/30 10:35:53;;;;;;;33.63;5.45;;;8.00;99.90;;;;;;5074683;28;20020;-83
2022/01/30 10:38:22;;;;;;;29.38;5.60;;;8.10;99.90;;;;;;5093418;28;20026;-83
2022/01/30 10:40:53;;;;;;;40.55;5.28;;;8.10;99.90;;;;;;5077765;28;20185;-83
2022/01/30 10:43:18;;;;;;;;;;;8.10;99.90;;;;;;5079527;28;20056;-83
2022/01/30 10:45:44;;;;;;;29.00;5.05;;;8.10;99.90;;;;;;5078063;28;19961;-83
2022/01/30 10:48:18;;;;;;;28.50;4.65;;;8.10;99.90;;;;;;5096704;28;20032;-82
2022/01/30 10:50:47;;;;;;;37.85;5.13;;;8.10;99.90;;;;;;5078006;28;20035;-84
2022/01/30 10:53:25;;;;;;;32.35;5.53;;;8.20;99.90;;;;;;5078114;28;20131;-83
2022/01/30 10:55:51;;;;;;;30.88;5.60;;;8.20;99.90;;;;;;5096207;28;20103;-82
2022/01/30 10:58:22;;;;;;;31.85;4.43;;;8.20;99.90;;;;;;5061631;28;20028;-83
2022/01/30 11:00:55;;;;;;;36.55;6.35;;;8.30;99.90;;;;;;5061551;28;20028;-83
2022/01/30 11:03:45;;;;;;;27.60;4.50;;;8.30;99.90;;;;;;5078847;28;20047;-83
2022/01/30 11:06:15;;;;;;;39.30;6.32;;;8.40;99.90;;;;;;5097784;28;20016;-84
2022/01/30 11:08:45;;;;;;;29.35;4.72;;;8.40;99.90;;;;;;5082205;28;20431;-82
2022/01/30 11:11:33;;;;;;;26.07;5.03;;;8.50;99.90;;;;;;5062076;28;20028;-83
2022/01/30 11:14:15;;;;;;;25.65;4.85;;;8.60;99.90;;;;;;5096309;28;20276;-83
2022/01/30 11:17:02;;;;;;;33.50;5.82;;;8.70;99.90;;;;;;5063909;28;20465;-83
2022/01/30 11:19:33;;;;;;;35.28;5.00;;;8.70;99.90;;;;;;5078124;28;20479;-83
2022/01/30 11:22:00;;;;;;;;;;;8.80;99.90;;;;;;5096780;28;20073;-84
2022/01/30 11:24:27;;;;;;;39.67;6.20;;;8.90;99.90;;;;;;5096206;28;19912;-83
2022/01/30 11:26:53;;;;;;;30.65;5.28;;;8.90;99.90;;;;;;5095875;28;20059;-83
2022/01/30 11:29:20;;;;;;;26.10;4.93;;;9.00;99.90;;;;;;5077920;28;20028;-82
2022/01/30 11:31:47;;;;;;;28.70;5.57;;;9.00;99.90;;;;;;5062990;28;20028;-83
2022/01/30 11:34:13;;;;;;;37.40;8.57;;;9.10;99.90;;;;;;5060820;28;20111;-84
2022/01/30 11:36:45;;;;;;;28.23;5.30;;;9.20;99.90;;;;;;5077442;28;20028;-91
2022/01/30 11:39:17;;;;;;;29.65;5.43;;;9.30;99.90;;;;;;5077440;28;20466;-81
2022/01/30 11:42:09;;;;;;;36.60;7.35;;;9.40;99.90;;;;;;5076798;28;20031;-83
2022/01/30 11:44:35;;;;;;;33.45;5.45;;;9.50;99.90;;;;;;5077363;28;20063;-81
2022/01/30 11:47:04;;;;;;;38.35;5.75;;;9.50;99.90;;;;;;5095404;28;20077;-84
2022/01/30 11:49:46;;;;;;;27.13;5.65;;;9.60;99.90;;;;;;5095274;28;20035;-84
2022/01/30 11:52:14;;;;;;;28.85;6.53;;;9.60;99.90;;;;;;5076742;28;20020;-84
2022/01/30 11:54:53;;;;;;;29.20;4.70;;;9.60;99.90;;;;;;5077229;28;20024;-84
2022/01/30 11:57:22;;;;;;;26.77;5.13;;;9.70;99.90;;;;;;5095509;28;20015;-82
2022/01/30 11:59:52;;;;;;;27.92;5.00;;;9.70;99.90;;;;;;5095138;28;20464;-82
2022/01/30 12:02:28;;;;;;;33.70;5.50;;;9.80;99.90;;;;;;5077321;28;20032;-82
2022/01/30 12:05:04;;;;;;;31.55;5.57;;;9.80;99.90;;;;;;5076869;28;20024;-82
2022/01/30 12:07:36;;;;;;;35.25;5.45;;;9.80;99.90;;;;;;5076388;28;20030;-81
2022/01/30 12:10:19;;;;;;;27.33;4.90;;;9.90;99.90;;;;;;5094736;28;20028;-82
2022/01/30 12:12:52;;;;;;;37.25;6.03;;;9.90;99.90;;;;;;5094582;28;20629;-82
2022/01/30 12:15:37;;;;;;;29.13;5.90;;;10.00;99.90;;;;;;5060709;28;20024;-81
2022/01/30 12:18:08;;;;;;;26.27;4.90;;;10.00;99.90;;;;;;5076441;28;20024;-81
2022/01/30 12:20:56;;;;;;;30.73;5.75;;;10.10;99.90;;;;;;5094887;28;20103;-82
2022/01/30 12:23:30;;;;;;;27.20;4.85;;;10.20;99.60;;;;;;5073594;28;20040;-82
2022/01/30 12:26:05;;;;;;;33.88;6.00;;;10.30;99.60;;;;;;5094360;28;20079;-82
2022/01/30 12:28:51;;;;;;;30.38;7.00;;;10.40;98.80;;;;;;5074276;28;20059;-83
2022/01/30 12:31:38;;;;;;;30.83;5.85;;;10.40;98.20;;;;;;5076220;28;20028;-83
2022/01/30 12:34:14;;;;;;;28.38;4.88;;;10.40;98.40;;;;;;5059759;28;20024;-83
2022/01/30 12:36:42;;;;;;;26.35;5.45;;;10.40;97.50;;;;;;5076267;28;20026;-83
2022/01/30 12:39:14;;;;;;;36.00;5.10;;;10.40;96.50;;;;;;5059320;28;20074;-83
2022/01/30 12:41:40;;;;;;;30.75;5.25;;;10.40;96.40;;;;;;5075817;28;20063;-82
2022/01/30 12:44:15;;;;;;;33.85;6.00;;;10.40;96.30;;;;;;5075842;28;20029;-83
2022/01/30 12:46:49;;;;;;;22.40;4.80;;;10.40;95.70;;;;;;5076076;28;20426;-82
2022/01/30 12:49:22;;;;;;;30.08;5.57;;;10.40;95.20;;;;;;5059466;28;20445;-83
2022/01/30 12:51:57;;;;;;;27.20;5.45;;;10.40;95.60;;;;;;5071282;28;20028;-88
2022/01/30 12:54:28;;;;;;;22.42;4.78;;;10.40;95.40;;;;;;5092398;28;20499;-85
2022/01/30 12:56:55;;;;;;;36.03;6.13;;;10.40;95.80;;;;;;5058052;28;20028;-83
2022/01/30 12:59:25;;;;;;;43.72;7.10;;;10.50;95.80;;;;;;5075434;28;20031;-85
2022/01/30 13:01:51;;;;;;;32.97;5.20;;;10.50;95.50;;;;;;5059728;28;20056;-84
2022/01/30 13:04:28;;;;;;;27.00;5.22;;;10.60;95.50;;;;;;5092943;28;20097;-83
2022/01/30 13:06:54;;;;;;;24.88;4.88;;;10.60;95.40;;;;;;5075493;28;20024;-84
2022/01/30 13:09:22;;;;;;;30.63;5.22;;;10.60;94.40;;;;;;5075574;28;20024;-84
2022/01/30 13:11:48;;;;;;;33.28;5.88;;;10.70;94.30;;;;;;5075564;28;20020;-83
2022/01/30 13:14:14;;;;;;;33.20;5.75;;;10.70;93.70;;;;;;5075282;28;20110;-84
2022/01/30 13:16:51;;;;;;;31.33;6.80;;;10.80;93.60;;;;;;5058898;28;20051;-84
2022/01/30 13:19:35;;;;;;;22.35;5.25;;;10.80;93.20;;;;;;5058980;28;20040;-84
2022/01/30 13:22:09;;;;;;;33.13;5.10;;;10.90;92.50;;;;;;5093567;28;20039;-84
2022/01/30 13:24:35;;;;;;;32.60;5.80;;;10.90;92.80;;;;;;5093665;28;20039;-84
2022/01/30 13:27:04;;;;;;;29.38;4.72;;;11.00;92.50;;;;;;5058538;28;20048;-84
2022/01/30 13:29:33;;;;;;;31.58;4.97;;;11.00;92.50;;;;;;5094511;28;20420;-83
2022/01/30 13:32:07;;;;;;;28.77;5.47;;;11.10;92.30;;;;;;5075169;28;20089;-84
2022/01/30 13:34:34;;;;;;;25.15;4.38;;;11.10;91.80;;;;;;5060139;28;20403;-84
2022/01/30 13:37:05;;;;;;;26.85;4.95;;;11.20;91.20;;;;;;5075728;28;20031;-84
2022/01/30 13:39:47;;;;;;;22.75;4.20;;;11.30;91.70;;;;;;5094649;28;20076;-83
2022/01/30 13:48:14;;;;;;;23.13;4.68;;;11.50;90.90;;;;;;5093574;28;20028;-84
2022/01/30 13:50:44;;;;;;;29.45;5.43;;;11.60;90.80;;;;;;5075676;28;20410;-84
2022/01/30 13:53:10;;;;;;;23.90;4.90;;;11.70;90.30;;;;;;5075284;28;20024;-83
2022/01/30 13:55:54;;;;;;;29.33;5.68;;;11.70;90.10;;;;;;5093408;28;20368;-85